sensor_id;sensor_type;location;lat;lon;timestamp;P1;durP1;ratioP1;P2;durP2;ratioP2
85056;SDS011;75393;49.516;8.662;2024-02-26T00:02:06;0.60;;;0.40;;
85056;SDS011;75393;49.516;8.662;2024-02-26T00:04:32;1.00;;;0.30;;
85056;SDS011;75393;49.516;8.662;2024-02-26T00:06:57;1.10;;;0.17;;
85056;SDS011;75393;49.516;8.662;2024-02-26T00:09:23;0.68;;;0.35;;
85056;SDS011;75393;49.516;8.662;2024-02-26T00:11:48;0.95;;;0.35;;
85056;SDS011;75393;49.516;8.662;2024-02-26T00:14:13;0.40;;;0.10;;
85056;SDS011;75393;49.516;8.662;2024-02-26T00:16:42;0.75;;;0.40;;
85056;SDS011;75393;49.516;8.662;2024-02-26T00:19:07;1.27;;;0.13;;
85056;SDS011;75393;49.516;8.662;2024-02-26T00:21:32;1.67;;;0.30;;
85056;SDS011;75393;49.516;8.662;2024-02-26T00:23:58;0.77;;;0.38;;
85056;SDS011;75393;49.516;8.662;2024-02-26T00:26:23;0.90;;;0.20;;
85056;SDS011;75393;49.516;8.662;2024-02-26T00:28:48;1.35;;;0.40;;
85056;SDS011;75393;49.516;8.662;2024-02-26T00:31:14;1.00;;;0.20;;
85056;SDS011;75393;49.516;8.662;2024-02-26T00:33:39;0.80;;;0.20;;
85056;SDS011;75393;49.516;8.662;2024-02-26T00:36:05;0.55;;;0.30;;
85056;SDS011;75393;49.516;8.662;2024-02-26T00:38:30;0.50;;;0.20;;
85056;SDS011;75393;49.516;8.662;2024-02-26T00:40:55;0.47;;;0.28;;
85056;SDS011;75393;49.516;8.662;2024-02-26T00:43:21;0.95;;;0.10;;
85056;SDS011;75393;49.516;8.662;2024-02-26T00:45:46;0.68;;;0.25;;
85056;SDS011;75393;49.516;8.662;2024-02-26T00:48:12;0.80;;;0.63;;
85056;SDS011;75393;49.516;8.662;2024-02-26T00:50:38;1.08;;;0.22;;
85056;SDS011;75393;49.516;8.662;2024-02-26T00:53:04;2.10;;;0.30;;
85056;SDS011;75393;49.516;8.662;2024-02-26T00:55:29;0.50;;;0.30;;
85056;SDS011;75393;49.516;8.662;2024-02-26T00:57:54;0.20;;;0.20;;
85056;SDS011;75393;49.516;8.662;2024-02-26T01:00:20;3.20;;;0.30;;
85056;SDS011;75393;49.516;8.662;2024-02-26T01:02:45;0.65;;;0.13;;
85056;SDS011;75393;49.516;8.662;2024-02-26T01:05:14;0.45;;;0.20;;
85056;SDS011;75393;49.516;8.662;2024-02-26T01:07:41;0.88;;;0.40;;
85056;SDS011;75393;49.516;8.662;2024-02-26T01:10:06;1.55;;;0.52;;
85056;SDS011;75393;49.516;8.662;2024-02-26T01:12:33;2.28;;;0.30;;
85056;SDS011;75393;49.516;8.662;2024-02-26T01:14:59;0.50;;;0.32;;
85056;SDS011;75393;49.516;8.662;2024-02-26T01:17:24;1.25;;;0.35;;
85056;SDS011;75393;49.516;8.662;2024-02-26T01:19:50;0.93;;;0.50;;
85056;SDS011;75393;49.516;8.662;2024-02-26T01:22:15;0.52;;;0.52;;
85056;SDS011;75393;49.516;8.662;2024-02-26T01:24:41;1.05;;;0.30;;
85056;SDS011;75393;49.516;8.662;2024-02-26T01:27:06;1.48;;;0.40;;
85056;SDS011;75393;49.516;8.662;2024-02-26T01:29:32;0.68;;;0.22;;
85056;SDS011;75393;49.516;8.662;2024-02-26T01:31:58;2.00;;;0.32;;
85056;SDS011;75393;49.516;8.662;2024-02-26T01:34:23;1.00;;;0.40;;
85056;SDS011;75393;49.516;8.662;2024-02-26T01:36:48;2.22;;;0.30;;
85056;SDS011;75393;49.516;8.662;2024-02-26T01:39:14;0.85;;;0.43;;
85056;SDS011;75393;49.516;8.662;2024-02-26T01:41:39;1.02;;;0.30;;
85056;SDS011;75393;49.516;8.662;2024-02-26T01:44:05;1.75;;;0.20;;
85056;SDS011;75393;49.516;8.662;2024-02-26T01:46:32;0.63;;;0.43;;
85056;SDS011;75393;49.516;8.662;2024-02-26T01:48:58;1.92;;;0.30;;
85056;SDS011;75393;49.516;8.662;2024-02-26T01:51:24;0.50;;;0.20;;
85056;SDS011;75393;49.516;8.662;2024-02-26T01:53:49;1.10;;;0.28;;
85056;SDS011;75393;49.516;8.662;2024-02-26T01:56:15;1.08;;;0.40;;
85056;SDS011;75393;49.516;8.662;2024-02-26T01:58:42;1.10;;;0.20;;
85056;SDS011;75393;49.516;8.662;2024-02-26T02:01:08;1.48;;;0.20;;
85056;SDS011;75393;49.516;8.662;2024-02-26T02:03:33;2.33;;;0.28;;
85056;SDS011;75393;49.516;8.662;2024-02-26T02:05:58;0.63;;;0.10;;
85056;SDS011;75393;49.516;8.662;2024-02-26T02:08:24;0.88;;;0.82;;
85056;SDS011;75393;49.516;8.662;2024-02-26T02:10:49;1.42;;;0.40;;
85056;SDS011;75393;49.516;8.662;2024-02-26T02:13:15;1.02;;;0.20;;
85056;SDS011;75393;49.516;8.662;2024-02-26T02:15:40;0.82;;;0.40;;
85056;SDS011;75393;49.516;8.662;2024-02-26T02:18:06;2.05;;;0.38;;
85056;SDS011;75393;49.516;8.662;2024-02-26T02:20:35;0.20;;;0.13;;
85056;SDS011;75393;49.516;8.662;2024-02-26T02:23:00;0.60;;;0.20;;
85056;SDS011;75393;49.516;8.662;2024-02-26T02:25:26;1.10;;;0.20;;
85056;SDS011;75393;49.516;8.662;2024-02-26T02:27:52;0.32;;;0.10;;
85056;SDS011;75393;49.516;8.662;2024-02-26T02:30:27;1.55;;;0.30;;
85056;SDS011;75393;49.516;8.662;2024-02-26T02:32:53;2.28;;;0.10;;
85056;SDS011;75393;49.516;8.662;2024-02-26T02:35:18;0.63;;;0.20;;
85056;SDS011;75393;49.516;8.662;2024-02-26T02:37:44;0.40;;;0.25;;
85056;SDS011;75393;49.516;8.662;2024-02-26T02:40:09;0.33;;;0.17;;
85056;SDS011;75393;49.516;8.662;2024-02-26T02:42:35;1.48;;;0.52;;
85056;SDS011;75393;49.516;8.662;2024-02-26T02:45:00;0.82;;;0.20;;
85056;SDS011;75393;49.516;8.662;2024-02-26T02:47:25;1.27;;;0.40;;
85056;SDS011;75393;49.516;8.662;2024-02-26T02:49:51;0.73;;;0.30;;
85056;SDS011;75393;49.516;8.662;2024-02-26T02:52:16;1.60;;;0.32;;
85056;SDS011;75393;49.516;8.662;2024-02-26T02:54:41;0.70;;;0.30;;
85056;SDS011;75393;49.516;8.662;2024-02-26T02:57:07;1.30;;;0.28;;
85056;SDS011;75393;49.516;8.662;2024-02-26T02:59:33;0.80;;;0.20;;
85056;SDS011;75393;49.516;8.662;2024-02-26T03:01:58;0.77;;;0.30;;
85056;SDS011;75393;49.516;8.662;2024-02-26T03:04:24;1.83;;;0.30;;
85056;SDS011;75393;49.516;8.662;2024-02-26T03:06:49;0.60;;;0.20;;
85056;SDS011;75393;49.516;8.662;2024-02-26T03:09:14;0.53;;;0.20;;
85056;SDS011;75393;49.516;8.662;2024-02-26T03:11:40;0.68;;;0.28;;
85056;SDS011;75393;49.516;8.662;2024-02-26T03:14:05;0.43;;;0.17;;
85056;SDS011;75393;49.516;8.662;2024-02-26T03:16:31;1.08;;;0.17;;
85056;SDS011;75393;49.516;8.662;2024-02-26T03:18:56;0.45;;;0.28;;
85056;SDS011;75393;49.516;8.662;2024-02-26T03:21:22;0.30;;;0.10;;
85056;SDS011;75393;49.516;8.662;2024-02-26T03:23:47;0.57;;;0.20;;
85056;SDS011;75393;49.516;8.662;2024-02-26T03:26:12;0.73;;;0.30;;
85056;SDS011;75393;49.516;8.662;2024-02-26T03:28:39;0.95;;;0.20;;
85056;SDS011;75393;49.516;8.662;2024-02-26T03:31:05;1.83;;;0.20;;
85056;SDS011;75393;49.516;8.662;2024-02-26T03:33:30;1.33;;;0.70;;
85056;SDS011;75393;49.516;8.662;2024-02-26T03:35:56;0.37;;;0.20;;
85056;SDS011;75393;49.516;8.662;2024-02-26T03:38:21;1.08;;;0.20;;
85056;SDS011;75393;49.516;8.662;2024-02-26T03:40:47;1.20;;;0.20;;
85056;SDS011;75393;49.516;8.662;2024-02-26T03:43:12;0.20;;;0.13;;
85056;SDS011;75393;49.516;8.662;2024-02-26T03:45:38;0.22;;;0.13;;
85056;SDS011;75393;49.516;8.662;2024-02-26T03:48:03;0.57;;;0.10;;
85056;SDS011;75393;49.516;8.662;2024-02-26T03:50:28;1.33;;;0.13;;
85056;SDS011;75393;49.516;8.662;2024-02-26T03:52:54;0.28;;;0.28;;
85056;SDS011;75393;49.516;8.662;2024-02-26T03:55:19;1.27;;;0.22;;
85056;SDS011;75393;49.516;8.662;2024-02-26T03:57:49;1.15;;;0.20;;
85056;SDS011;75393;49.516;8.662;2024-02-26T04:00:15;0.85;;;0.20;;
85056;SDS011;75393;49.516;8.662;2024-02-26T04:02:41;0.63;;;0.22;;
85056;SDS011;75393;49.516;8.662;2024-02-26T04:05:09;0.20;;;0.10;;
85056;SDS011;75393;49.516;8.662;2024-02-26T04:07:35;0.80;;;0.20;;
85056;SDS011;75393;49.516;8.662;2024-02-26T04:10:00;2.28;;;0.15;;
85056;SDS011;75393;49.516;8.662;2024-02-26T04:12:28;1.55;;;0.52;;
85056;SDS011;75393;49.516;8.662;2024-02-26T04:14:54;2.72;;;0.15;;
85056;SDS011;75393;49.516;8.662;2024-02-26T04:17:19;0.40;;;0.20;;
85056;SDS011;75393;49.516;8.662;2024-02-26T04:19:44;0.60;;;0.30;;
85056;SDS011;75393;49.516;8.662;2024-02-26T04:22:10;1.92;;;0.52;;
85056;SDS011;75393;49.516;8.662;2024-02-26T04:24:36;2.28;;;0.30;;
85056;SDS011;75393;49.516;8.662;2024-02-26T04:27:01;1.63;;;0.40;;
85056;SDS011;75393;49.516;8.662;2024-02-26T04:29:26;3.33;;;0.30;;
85056;SDS011;75393;49.516;8.662;2024-02-26T04:31:52;0.70;;;0.45;;
85056;SDS011;75393;49.516;8.662;2024-02-26T04:34:17;0.43;;;0.25;;
85056;SDS011;75393;49.516;8.662;2024-02-26T04:36:42;1.17;;;0.30;;
85056;SDS011;75393;49.516;8.662;2024-02-26T04:39:08;2.38;;;0.17;;
85056;SDS011;75393;49.516;8.662;2024-02-26T04:41:33;0.55;;;0.20;;
85056;SDS011;75393;49.516;8.662;2024-02-26T04:43:59;0.83;;;0.40;;
85056;SDS011;75393;49.516;8.662;2024-02-26T04:46:24;0.50;;;0.20;;
85056;SDS011;75393;49.516;8.662;2024-02-26T04:48:50;0.90;;;0.30;;
85056;SDS011;75393;49.516;8.662;2024-02-26T04:51:15;1.08;;;0.30;;
85056;SDS011;75393;49.516;8.662;2024-02-26T04:53:41;0.82;;;0.50;;
85056;SDS011;75393;49.516;8.662;2024-02-26T04:56:06;0.73;;;0.27;;
85056;SDS011;75393;49.516;8.662;2024-02-26T04:58:31;0.70;;;0.30;;
85056;SDS011;75393;49.516;8.662;2024-02-26T05:00:57;0.80;;;0.30;;
85056;SDS011;75393;49.516;8.662;2024-02-26T05:03:22;0.82;;;0.22;;
85056;SDS011;75393;49.516;8.662;2024-02-26T05:05:47;0.30;;;0.10;;
85056;SDS011;75393;49.516;8.662;2024-02-26T05:08:13;1.20;;;0.22;;
85056;SDS011;75393;49.516;8.662;2024-02-26T05:10:38;1.20;;;0.20;;
85056;SDS011;75393;49.516;8.662;2024-02-26T05:13:08;0.47;;;0.47;;
85056;SDS011;75393;49.516;8.662;2024-02-26T05:15:33;0.55;;;0.20;;
85056;SDS011;75393;49.516;8.662;2024-02-26T05:17:59;0.77;;;0.30;;
85056;SDS011;75393;49.516;8.662;2024-02-26T05:20:24;0.50;;;0.32;;
85056;SDS011;75393;49.516;8.662;2024-02-26T05:22:50;0.90;;;0.20;;
85056;SDS011;75393;49.516;8.662;2024-02-26T05:25:15;1.23;;;0.22;;
85056;SDS011;75393;49.516;8.662;2024-02-26T05:27:41;0.20;;;0.10;;
85056;SDS011;75393;49.516;8.662;2024-02-26T05:30:08;0.63;;;0.25;;
85056;SDS011;75393;49.516;8.662;2024-02-26T05:32:34;0.85;;;0.22;;
85056;SDS011;75393;49.516;8.662;2024-02-26T05:34:59;1.55;;;0.20;;
85056;SDS011;75393;49.516;8.662;2024-02-26T05:37:24;0.30;;;0.20;;
85056;SDS011;75393;49.516;8.662;2024-02-26T05:39:50;0.70;;;0.50;;
85056;SDS011;75393;49.516;8.662;2024-02-26T05:42:15;0.75;;;0.20;;
85056;SDS011;75393;49.516;8.662;2024-02-26T05:44:40;1.23;;;0.10;;
85056;SDS011;75393;49.516;8.662;2024-02-26T05:47:06;0.82;;;0.30;;
85056;SDS011;75393;49.516;8.662;2024-02-26T05:49:31;2.40;;;0.50;;
85056;SDS011;75393;49.516;8.662;2024-02-26T05:51:57;0.40;;;0.17;;
85056;SDS011;75393;49.516;8.662;2024-02-26T05:54:23;0.20;;;0.20;;
85056;SDS011;75393;49.516;8.662;2024-02-26T05:56:48;1.58;;;0.43;;
85056;SDS011;75393;49.516;8.662;2024-02-26T05:59:13;0.55;;;0.20;;
85056;SDS011;75393;49.516;8.662;2024-02-26T06:01:40;1.58;;;0.30;;
85056;SDS011;75393;49.516;8.662;2024-02-26T06:04:05;0.80;;;0.15;;
85056;SDS011;75393;49.516;8.662;2024-02-26T06:06:31;0.60;;;0.30;;
85056;SDS011;75393;49.516;8.662;2024-02-26T06:08:57;0.75;;;0.43;;
85056;SDS011;75393;49.516;8.662;2024-02-26T06:11:22;0.38;;;0.20;;
85056;SDS011;75393;49.516;8.662;2024-02-26T06:13:47;1.10;;;0.30;;
85056;SDS011;75393;49.516;8.662;2024-02-26T06:16:13;0.82;;;0.82;;
85056;SDS011;75393;49.516;8.662;2024-02-26T06:18:38;0.43;;;0.32;;
85056;SDS011;75393;49.516;8.662;2024-02-26T06:21:03;0.33;;;0.23;;
85056;SDS011;75393;49.516;8.662;2024-02-26T06:23:29;1.00;;;0.28;;
85056;SDS011;75393;49.516;8.662;2024-02-26T06:25:54;0.57;;;0.20;;
85056;SDS011;75393;49.516;8.662;2024-02-26T06:28:20;1.45;;;0.25;;
85056;SDS011;75393;49.516;8.662;2024-02-26T06:30:45;0.20;;;0.20;;
85056;SDS011;75393;49.516;8.662;2024-02-26T06:33:11;1.27;;;0.30;;
85056;SDS011;75393;49.516;8.662;2024-02-26T06:35:37;0.82;;;0.38;;
85056;SDS011;75393;49.516;8.662;2024-02-26T06:38:02;0.88;;;0.30;;
85056;SDS011;75393;49.516;8.662;2024-02-26T06:40:29;0.57;;;0.20;;
85056;SDS011;75393;49.516;8.662;2024-02-26T06:42:54;1.10;;;0.30;;
85056;SDS011;75393;49.516;8.662;2024-02-26T06:45:20;1.45;;;0.22;;
85056;SDS011;75393;49.516;8.662;2024-02-26T06:47:45;0.73;;;0.25;;
85056;SDS011;75393;49.516;8.662;2024-02-26T06:50:11;0.43;;;0.10;;
85056;SDS011;75393;49.516;8.662;2024-02-26T06:52:38;0.60;;;0.45;;
85056;SDS011;75393;49.516;8.662;2024-02-26T06:55:03;0.10;;;0.10;;
85056;SDS011;75393;49.516;8.662;2024-02-26T06:57:30;0.43;;;0.13;;
85056;SDS011;75393;49.516;8.662;2024-02-26T06:59:55;0.82;;;0.10;;
85056;SDS011;75393;49.516;8.662;2024-02-26T07:02:29;0.70;;;0.65;;
85056;SDS011;75393;49.516;8.662;2024-02-26T07:04:54;0.20;;;0.10;;
85056;SDS011;75393;49.516;8.662;2024-02-26T07:07:21;0.55;;;0.20;;
85056;SDS011;75393;49.516;8.662;2024-02-26T07:09:47;0.52;;;0.20;;
85056;SDS011;75393;49.516;8.662;2024-02-26T07:12:13;0.30;;;0.22;;
85056;SDS011;75393;49.516;8.662;2024-02-26T07:14:39;0.63;;;0.28;;
85056;SDS011;75393;49.516;8.662;2024-02-26T07:17:04;4.35;;;0.60;;
85056;SDS011;75393;49.516;8.662;2024-02-26T07:19:29;3.45;;;0.68;;
85056;SDS011;75393;49.516;8.662;2024-02-26T07:21:55;4.35;;;0.93;;
85056;SDS011;75393;49.516;8.662;2024-02-26T07:24:20;7.88;;;1.23;;
85056;SDS011;75393;49.516;8.662;2024-02-26T07:26:46;3.97;;;0.90;;
85056;SDS011;75393;49.516;8.662;2024-02-26T07:29:11;8.20;;;1.40;;
85056;SDS011;75393;49.516;8.662;2024-02-26T07:31:37;5.70;;;0.90;;
85056;SDS011;75393;49.516;8.662;2024-02-26T07:34:02;6.80;;;1.10;;
85056;SDS011;75393;49.516;8.662;2024-02-26T07:36:27;5.55;;;0.75;;
85056;SDS011;75393;49.516;8.662;2024-02-26T07:38:53;4.87;;;0.90;;
85056;SDS011;75393;49.516;8.662;2024-02-26T07:41:19;5.10;;;1.00;;
85056;SDS011;75393;49.516;8.662;2024-02-26T07:43:45;5.68;;;1.45;;
85056;SDS011;75393;49.516;8.662;2024-02-26T07:46:13;7.10;;;1.20;;
85056;SDS011;75393;49.516;8.662;2024-02-26T07:48:39;5.10;;;0.70;;
85056;SDS011;75393;49.516;8.662;2024-02-26T07:51:04;3.58;;;0.80;;
85056;SDS011;75393;49.516;8.662;2024-02-26T07:53:30;1.92;;;0.68;;
85056;SDS011;75393;49.516;8.662;2024-02-26T07:55:55;3.50;;;0.75;;
85056;SDS011;75393;49.516;8.662;2024-02-26T07:58:21;5.75;;;0.85;;
85056;SDS011;75393;49.516;8.662;2024-02-26T08:00:48;4.88;;;0.70;;
85056;SDS011;75393;49.516;8.662;2024-02-26T08:03:14;4.25;;;0.93;;
85056;SDS011;75393;49.516;8.662;2024-02-26T08:05:40;3.22;;;0.85;;
85056;SDS011;75393;49.516;8.662;2024-02-26T08:08:07;4.95;;;1.10;;
85056;SDS011;75393;49.516;8.662;2024-02-26T08:10:53;4.95;;;0.90;;
85056;SDS011;75393;49.516;8.662;2024-02-26T08:13:18;5.75;;;1.48;;
85056;SDS011;75393;49.516;8.662;2024-02-26T08:15:44;5.18;;;1.30;;
85056;SDS011;75393;49.516;8.662;2024-02-26T08:18:09;4.40;;;1.05;;
85056;SDS011;75393;49.516;8.662;2024-02-26T08:20:34;3.90;;;1.55;;
85056;SDS011;75393;49.516;8.662;2024-02-26T08:22:59;7.90;;;1.80;;
85056;SDS011;75393;49.516;8.662;2024-02-26T08:25:31;4.50;;;0.98;;
85056;SDS011;75393;49.516;8.662;2024-02-26T08:30:22;3.85;;;1.20;;
85056;SDS011;75393;49.516;8.662;2024-02-26T08:32:47;9.82;;;1.63;;
85056;SDS011;75393;49.516;8.662;2024-02-26T08:35:13;9.10;;;1.45;;
85056;SDS011;75393;49.516;8.662;2024-02-26T08:37:38;6.90;;;1.48;;
85056;SDS011;75393;49.516;8.662;2024-02-26T08:40:04;6.05;;;1.52;;
85056;SDS011;75393;49.516;8.662;2024-02-26T08:42:30;4.70;;;1.40;;
85056;SDS011;75393;49.516;8.662;2024-02-26T08:44:56;5.22;;;1.20;;
85056;SDS011;75393;49.516;8.662;2024-02-26T08:47:21;4.75;;;1.30;;
85056;SDS011;75393;49.516;8.662;2024-02-26T08:49:46;5.40;;;0.95;;
85056;SDS011;75393;49.516;8.662;2024-02-26T08:52:12;4.72;;;1.23;;
85056;SDS011;75393;49.516;8.662;2024-02-26T08:54:37;4.68;;;1.33;;
85056;SDS011;75393;49.516;8.662;2024-02-26T08:57:03;6.65;;;1.25;;
85056;SDS011;75393;49.516;8.662;2024-02-26T08:59:28;7.32;;;1.73;;
85056;SDS011;75393;49.516;8.662;2024-02-26T09:01:54;7.82;;;1.55;;
85056;SDS011;75393;49.516;8.662;2024-02-26T09:04:19;6.70;;;1.40;;
85056;SDS011;75393;49.516;8.662;2024-02-26T09:06:44;5.57;;;1.05;;
85056;SDS011;75393;49.516;8.662;2024-02-26T09:09:10;9.20;;;1.02;;
85056;SDS011;75393;49.516;8.662;2024-02-26T09:11:36;4.03;;;1.00;;
85056;SDS011;75393;49.516;8.662;2024-02-26T09:14:01;6.05;;;1.50;;
85056;SDS011;75393;49.516;8.662;2024-02-26T09:16:27;6.55;;;1.42;;
85056;SDS011;75393;49.516;8.662;2024-02-26T09:18:52;4.28;;;0.98;;
85056;SDS011;75393;49.516;8.662;2024-02-26T09:21:17;5.22;;;1.58;;
85056;SDS011;75393;49.516;8.662;2024-02-26T09:23:48;7.18;;;1.20;;
85056;SDS011;75393;49.516;8.662;2024-02-26T09:26:14;6.68;;;1.50;;
85056;SDS011;75393;49.516;8.662;2024-02-26T09:28:40;7.40;;;1.60;;
85056;SDS011;75393;49.516;8.662;2024-02-26T09:31:05;16.05;;;1.77;;
85056;SDS011;75393;49.516;8.662;2024-02-26T09:33:31;4.35;;;1.10;;
85056;SDS011;75393;49.516;8.662;2024-02-26T09:35:57;5.07;;;1.20;;
85056;SDS011;75393;49.516;8.662;2024-02-26T09:38:22;7.68;;;1.27;;
85056;SDS011;75393;49.516;8.662;2024-02-26T09:40:48;4.28;;;0.90;;
85056;SDS011;75393;49.516;8.662;2024-02-26T09:43:14;5.45;;;1.35;;
85056;SDS011;75393;49.516;8.662;2024-02-26T09:45:42;7.72;;;1.13;;
85056;SDS011;75393;49.516;8.662;2024-02-26T09:48:08;6.85;;;1.30;;
85056;SDS011;75393;49.516;8.662;2024-02-26T09:50:35;5.07;;;1.27;;
85056;SDS011;75393;49.516;8.662;2024-02-26T09:53:02;8.25;;;1.27;;
85056;SDS011;75393;49.516;8.662;2024-02-26T09:55:27;7.55;;;1.40;;
85056;SDS011;75393;49.516;8.662;2024-02-26T09:57:53;5.15;;;1.23;;
85056;SDS011;75393;49.516;8.662;2024-02-26T10:00:19;6.88;;;2.20;;
85056;SDS011;75393;49.516;8.662;2024-02-26T10:02:46;5.75;;;1.40;;
85056;SDS011;75393;49.516;8.662;2024-02-26T10:05:13;5.82;;;1.10;;
85056;SDS011;75393;49.516;8.662;2024-02-26T10:07:40;3.72;;;0.98;;
85056;SDS011;75393;49.516;8.662;2024-02-26T10:10:05;5.57;;;1.42;;
85056;SDS011;75393;49.516;8.662;2024-02-26T10:12:30;6.38;;;1.85;;
85056;SDS011;75393;49.516;8.662;2024-02-26T10:14:57;5.57;;;1.30;;
85056;SDS011;75393;49.516;8.662;2024-02-26T10:17:22;6.22;;;1.30;;
85056;SDS011;75393;49.516;8.662;2024-02-26T10:19:48;9.98;;;1.30;;
85056;SDS011;75393;49.516;8.662;2024-02-26T10:22:13;6.82;;;1.38;;
85056;SDS011;75393;49.516;8.662;2024-02-26T10:24:38;6.50;;;1.35;;
85056;SDS011;75393;49.516;8.662;2024-02-26T10:27:04;6.18;;;0.95;;
85056;SDS011;75393;49.516;8.662;2024-02-26T10:29:31;6.72;;;1.63;;
85056;SDS011;75393;49.516;8.662;2024-02-26T10:31:57;6.25;;;1.25;;
85056;SDS011;75393;49.516;8.662;2024-02-26T10:34:22;5.07;;;1.30;;
85056;SDS011;75393;49.516;8.662;2024-02-26T10:36:48;3.35;;;1.05;;
85056;SDS011;75393;49.516;8.662;2024-02-26T10:39:14;5.35;;;1.17;;
85056;SDS011;75393;49.516;8.662;2024-02-26T10:41:44;7.35;;;1.58;;
85056;SDS011;75393;49.516;8.662;2024-02-26T10:44:10;3.28;;;0.93;;
85056;SDS011;75393;49.516;8.662;2024-02-26T10:46:42;4.22;;;1.33;;
85056;SDS011;75393;49.516;8.662;2024-02-26T10:49:14;2.88;;;0.70;;
85056;SDS011;75393;49.516;8.662;2024-02-26T10:51:43;5.55;;;1.02;;
85056;SDS011;75393;49.516;8.662;2024-02-26T10:54:11;3.95;;;0.90;;
85056;SDS011;75393;49.516;8.662;2024-02-26T10:56:39;0.93;;;0.57;;
85056;SDS011;75393;49.516;8.662;2024-02-26T10:59:08;5.13;;;0.70;;
85056;SDS011;75393;49.516;8.662;2024-02-26T11:01:34;5.13;;;0.90;;
85056;SDS011;75393;49.516;8.662;2024-02-26T11:04:02;2.60;;;0.82;;
85056;SDS011;75393;49.516;8.662;2024-02-26T11:06:28;2.70;;;0.70;;
85056;SDS011;75393;49.516;8.662;2024-02-26T11:08:53;3.58;;;0.52;;
85056;SDS011;75393;49.516;8.662;2024-02-26T11:11:19;2.00;;;0.63;;
85056;SDS011;75393;49.516;8.662;2024-02-26T11:13:46;2.33;;;0.88;;
85056;SDS011;75393;49.516;8.662;2024-02-26T11:16:16;3.13;;;1.00;;
85056;SDS011;75393;49.516;8.662;2024-02-26T11:18:43;13.77;;;1.02;;
85056;SDS011;75393;49.516;8.662;2024-02-26T11:21:08;3.08;;;1.15;;
85056;SDS011;75393;49.516;8.662;2024-02-26T11:23:35;2.58;;;0.60;;
85056;SDS011;75393;49.516;8.662;2024-02-26T11:26:02;5.18;;;0.80;;
85056;SDS011;75393;49.516;8.662;2024-02-26T11:28:28;1.70;;;0.40;;
85056;SDS011;75393;49.516;8.662;2024-02-26T11:30:54;3.38;;;0.77;;
85056;SDS011;75393;49.516;8.662;2024-02-26T11:33:20;3.45;;;0.65;;
85056;SDS011;75393;49.516;8.662;2024-02-26T11:35:45;2.13;;;0.60;;
85056;SDS011;75393;49.516;8.662;2024-02-26T11:38:16;3.97;;;0.70;;
85056;SDS011;75393;49.516;8.662;2024-02-26T11:40:44;2.22;;;0.40;;
85056;SDS011;75393;49.516;8.662;2024-02-26T11:43:10;3.63;;;0.80;;
85056;SDS011;75393;49.516;8.662;2024-02-26T11:48:04;5.28;;;1.30;;
85056;SDS011;75393;49.516;8.662;2024-02-26T11:50:34;2.88;;;0.70;;
85056;SDS011;75393;49.516;8.662;2024-02-26T11:53:19;2.08;;;0.50;;
85056;SDS011;75393;49.516;8.662;2024-02-26T11:55:45;2.75;;;0.82;;
85056;SDS011;75393;49.516;8.662;2024-02-26T11:58:10;2.33;;;1.48;;
85056;SDS011;75393;49.516;8.662;2024-02-26T12:00:35;1.83;;;0.73;;
85056;SDS011;75393;49.516;8.662;2024-02-26T12:03:01;2.67;;;1.10;;
85056;SDS011;75393;49.516;8.662;2024-02-26T12:05:34;5.00;;;0.90;;
85056;SDS011;75393;49.516;8.662;2024-02-26T12:08:05;4.60;;;0.85;;
85056;SDS011;75393;49.516;8.662;2024-02-26T12:10:38;2.38;;;0.77;;
85056;SDS011;75393;49.516;8.662;2024-02-26T12:13:05;3.95;;;0.90;;
85056;SDS011;75393;49.516;8.662;2024-02-26T12:15:39;3.33;;;0.77;;
85056;SDS011;75393;49.516;8.662;2024-02-26T12:18:07;6.35;;;0.82;;
85056;SDS011;75393;49.516;8.662;2024-02-26T12:20:33;3.05;;;0.85;;
85056;SDS011;75393;49.516;8.662;2024-02-26T12:22:58;5.78;;;1.52;;
85056;SDS011;75393;49.516;8.662;2024-02-26T12:25:28;3.70;;;0.70;;
85056;SDS011;75393;49.516;8.662;2024-02-26T12:27:54;13.68;;;1.58;;
85056;SDS011;75393;49.516;8.662;2024-02-26T12:30:19;3.58;;;1.20;;
85056;SDS011;75393;49.516;8.662;2024-02-26T12:32:48;2.85;;;1.10;;
85056;SDS011;75393;49.516;8.662;2024-02-26T12:35:14;4.68;;;0.77;;
85056;SDS011;75393;49.516;8.662;2024-02-26T12:37:41;3.15;;;0.95;;
85056;SDS011;75393;49.516;8.662;2024-02-26T12:40:07;6.97;;;1.33;;
85056;SDS011;75393;49.516;8.662;2024-02-26T12:42:35;2.90;;;0.75;;
85056;SDS011;75393;49.516;8.662;2024-02-26T12:45:08;4.25;;;1.10;;
85056;SDS011;75393;49.516;8.662;2024-02-26T12:47:35;4.40;;;1.02;;
85056;SDS011;75393;49.516;8.662;2024-02-26T12:50:02;2.75;;;0.90;;
85056;SDS011;75393;49.516;8.662;2024-02-26T12:52:29;5.20;;;1.02;;
85056;SDS011;75393;49.516;8.662;2024-02-26T12:54:55;2.85;;;0.70;;
85056;SDS011;75393;49.516;8.662;2024-02-26T12:57:20;3.92;;;0.80;;
85056;SDS011;75393;49.516;8.662;2024-02-26T12:59:46;5.10;;;0.90;;
85056;SDS011;75393;49.516;8.662;2024-02-26T13:02:11;3.35;;;0.80;;
85056;SDS011;75393;49.516;8.662;2024-02-26T13:04:37;3.90;;;1.00;;
85056;SDS011;75393;49.516;8.662;2024-02-26T13:07:03;3.92;;;0.93;;
85056;SDS011;75393;49.516;8.662;2024-02-26T13:09:32;6.22;;;1.05;;
85056;SDS011;75393;49.516;8.662;2024-02-26T13:11:58;4.93;;;0.60;;
85056;SDS011;75393;49.516;8.662;2024-02-26T13:14:24;8.43;;;1.23;;
85056;SDS011;75393;49.516;8.662;2024-02-26T13:16:55;4.80;;;1.00;;
85056;SDS011;75393;49.516;8.662;2024-02-26T13:19:21;3.72;;;1.23;;
85056;SDS011;75393;49.516;8.662;2024-02-26T13:21:47;6.32;;;0.90;;
85056;SDS011;75393;49.516;8.662;2024-02-26T13:24:12;7.80;;;1.00;;
85056;SDS011;75393;49.516;8.662;2024-02-26T13:26:38;3.60;;;0.98;;
85056;SDS011;75393;49.516;8.662;2024-02-26T13:29:04;6.82;;;1.15;;
85056;SDS011;75393;49.516;8.662;2024-02-26T13:31:30;5.63;;;1.52;;
85056;SDS011;75393;49.516;8.662;2024-02-26T13:33:55;5.20;;;1.13;;
85056;SDS011;75393;49.516;8.662;2024-02-26T13:36:24;5.82;;;1.10;;
85056;SDS011;75393;49.516;8.662;2024-02-26T13:38:54;4.10;;;1.40;;
85056;SDS011;75393;49.516;8.662;2024-02-26T13:41:20;7.30;;;1.25;;
85056;SDS011;75393;49.516;8.662;2024-02-26T13:43:48;3.17;;;0.93;;
85056;SDS011;75393;49.516;8.662;2024-02-26T13:46:14;4.68;;;0.98;;
85056;SDS011;75393;49.516;8.662;2024-02-26T13:48:40;3.95;;;0.70;;
85056;SDS011;75393;49.516;8.662;2024-02-26T13:51:08;4.28;;;0.90;;
85056;SDS011;75393;49.516;8.662;2024-02-26T13:53:34;5.15;;;1.08;;
85056;SDS011;75393;49.516;8.662;2024-02-26T13:55:59;9.73;;;1.48;;
85056;SDS011;75393;49.516;8.662;2024-02-26T13:58:26;4.03;;;0.77;;
85056;SDS011;75393;49.516;8.662;2024-02-26T14:00:52;8.30;;;1.10;;
85056;SDS011;75393;49.516;8.662;2024-02-26T14:03:17;5.85;;;1.00;;
85056;SDS011;75393;49.516;8.662;2024-02-26T14:05:44;6.05;;;1.38;;
85056;SDS011;75393;49.516;8.662;2024-02-26T14:08:09;5.55;;;1.27;;
85056;SDS011;75393;49.516;8.662;2024-02-26T14:10:34;2.67;;;1.05;;
85056;SDS011;75393;49.516;8.662;2024-02-26T14:13:00;4.50;;;0.70;;
85056;SDS011;75393;49.516;8.662;2024-02-26T14:15:26;5.82;;;0.85;;
85056;SDS011;75393;49.516;8.662;2024-02-26T14:17:53;7.18;;;0.90;;
85056;SDS011;75393;49.516;8.662;2024-02-26T14:20:21;3.63;;;0.90;;
85056;SDS011;75393;49.516;8.662;2024-02-26T14:22:47;4.13;;;0.88;;
85056;SDS011;75393;49.516;8.662;2024-02-26T14:25:13;4.25;;;0.93;;
85056;SDS011;75393;49.516;8.662;2024-02-26T14:27:38;13.32;;;1.40;;
85056;SDS011;75393;49.516;8.662;2024-02-26T14:30:04;3.03;;;0.90;;
85056;SDS011;75393;49.516;8.662;2024-02-26T14:32:30;2.58;;;0.88;;
85056;SDS011;75393;49.516;8.662;2024-02-26T14:34:59;4.03;;;0.88;;
85056;SDS011;75393;49.516;8.662;2024-02-26T14:37:28;2.90;;;0.90;;
85056;SDS011;75393;49.516;8.662;2024-02-26T14:39:53;3.58;;;0.73;;
85056;SDS011;75393;49.516;8.662;2024-02-26T14:42:19;1.67;;;0.98;;
85056;SDS011;75393;49.516;8.662;2024-02-26T14:44:44;3.55;;;0.70;;
85056;SDS011;75393;49.516;8.662;2024-02-26T14:47:11;3.72;;;1.02;;